Time;durP1;ratioP1;P1;durP2;ratioP2;P2;SDS_P1;SDS_P2;PMS_P1;PMS_P2;Temp;Humidity;BMP_temperature;BMP_pressure;BME280_temperature;BME280_humidity;BME280_pressure;Samples;Min_cycle;Max_cycle;Signal;HPM_P1;HPM_P2
2022/01/12 00:00:02;;;;;;;;;;;;;;;25.96;23.98;99042.53;173748;28;1163;-51
2022/01/12 00:00:08;;;;;;;;;;;;;;;25.98;23.89;99038.88;173953;28;808;-52
2022/01/12 00:00:13;;;;;;;;;;;;;;;25.97;24.11;99034.53;173809;28;1101;-49
2022/01/12 00:00:18;;;;;;;;;;;;;;;25.98;24.12;99038.00;173978;28;818;-51
2022/01/12 00:00:24;;;;;;;;;;;;;;;25.95;23.84;99039.06;173939;28;1509;-50
2022/01/12 00:00:32;;;;;;;;;;;;;;;25.95;23.90;99036.41;173911;28;1315;-49
2022/01/12 00:00:39;;;;;;;;;;;;;;;25.96;23.91;99040.75;172432;28;913;-49
2022/01/12 00:00:44;;;;;;;;;;;;;;;25.96;23.83;99042.53;171985;28;845;-48
2022/01/12 00:00:50;;;;;;;;;;;;;;;25.94;23.88;99028.56;172221;28;1300;-48
2022/01/12 00:00:56;;;;;;;;;;;;;;;25.96;24.05;99040.75;172558;28;1036;-53
2022/01/12 00:01:04;;;;;;;;;;;;;;;25.97;24.05;99039.81;172423;28;1152;-52
2022/01/12 00:01:12;;;;;;;;;;;;;;;25.99;24.04;99037.06;172278;28;4198;-51
2022/01/12 00:01:18;;;;;;;;;;;;;;;25.97;23.80;99039.81;172602;28;1274;-49
2022/01/12 00:01:24;;;;;;;;;;;;;;;25.95;23.78;99035.56;172496;28;951;-49
2022/01/12 00:01:29;;;;;;;;;;;;;;;25.96;23.91;99037.25;172686;28;802;-51
2022/01/12 00:01:34;;;;;;;;;;;;;;;25.93;23.73;99035.66;172628;28;1204;-51
2022/01/12 00:01:40;;;;;;;;;;;;;;;25.95;23.97;99038.19;172609;28;1136;-51
2022/01/12 00:01:45;;;;;;;;;;;;;;;25.88;24.22;99040.34;172730;28;866;-50
2022/01/12 00:01:50;;;;;;;;;;;;;;;25.81;24.26;99039.81;172607;28;1300;-51
2022/01/12 00:01:56;;;;;;;;;;;;;;;25.85;24.01;99037.88;172604;28;1033;-51
2022/01/12 00:02:01;;;;;;;;;;;;;;;25.85;24.08;99038.72;172457;28;1145;-51
2022/01/12 00:02:07;;;;;;;;;;;;;;;25.80;24.22;99034.63;172672;28;1597;-51
2022/01/12 00:02:12;;;;;;;;;;;;;;;25.84;24.28;99036.19;172365;28;1858;-49
2022/01/12 00:02:18;;;;;;;;;;;;;;;25.86;24.06;99040.44;171989;28;968;-51
2022/01/12 00:02:23;;;;;;;;;;;;;;;25.88;24.04;99038.53;171948;28;1177;-50
2022/01/12 00:02:28;;;;;;;;;;;;;;;25.89;24.27;99036.75;172676;28;810;-51
2022/01/12 00:02:34;;;;;;;;;;;;;;;25.89;24.06;99039.38;172597;28;963;-51
2022/01/12 00:02:39;;;;;;;;;;;;;;;25.88;24.21;99035.03;172081;28;920;-50
2022/01/12 00:02:44;;;;;;;;;;;;;;;25.88;24.08;99040.34;172051;28;889;-50
2022/01/12 00:02:49;;;;;;;;;;;;;;;25.91;24.13;99034.91;172449;28;1058;-52
2022/01/12 00:02:55;;;;;;;;;;;;;;;25.92;24.05;99041.88;172613;28;1053;-52
2022/01/12 00:03:00;;;;;;;;;;;;;;;25.91;24.00;99045.47;172341;28;1090;-48
2022/01/12 00:03:06;;;;;;;;;;;;;;;25.92;24.20;99033.94;172635;28;834;-50
2022/01/12 00:03:11;;;;;;;;;;;;;;;25.87;24.09;99044.78;172661;28;1129;-50
2022/01/12 00:03:16;;;;;;;;;;;;;;;25.88;23.96;99040.34;172563;28;1227;-51
2022/01/12 00:03:21;;;;;;;;;;;;;;;25.83;23.96;99039.72;172496;28;978;-51
2022/01/12 00:03:27;;;;;;;;;;;;;;;25.81;24.03;99042.47;173754;28;1543;-49
2022/01/12 00:03:35;;;;;;;;;;;;;;;25.83;24.47;99037.09;173765;28;1084;-51
2022/01/12 00:03:40;;;;;;;;;;;;;;;25.81;24.07;99039.81;173351;28;825;-51
2022/01/12 00:03:46;;;;;;;;;;;;;;;25.82;24.23;99041.53;173362;28;1101;-52
2022/01/12 00:03:51;;;;;;;;;;;;;;;25.80;24.15;99037.28;173773;28;850;-49
2022/01/12 00:03:56;;;;;;;;;;;;;;;25.76;24.21;99036.59;173887;28;1037;-50
2022/01/12 00:04:01;;;;;;;;;;;;;;;25.77;24.50;99038.31;173753;28;1314;-51
2022/01/12 00:04:07;;;;;;;;;;;;;;;25.77;24.22;99038.31;173966;28;1249;-52
2022/01/12 00:04:12;;;;;;;;;;;;;;;25.74;24.24;99034.97;173818;28;1085;-51
2022/01/12 00:04:18;;;;;;;;;;;;;;;25.70;24.35;99028.97;173982;28;838;-51
2022/01/12 00:04:23;;;;;;;;;;;;;;;25.78;24.49;99034.72;173817;28;1192;-51
2022/01/12 00:04:28;;;;;;;;;;;;;;;25.83;24.32;99045.00;173977;28;888;-50
2022/01/12 00:04:33;;;;;;;;;;;;;;;25.84;24.10;99044.94;173881;28;1159;-51
2022/01/12 00:04:39;;;;;;;;;;;;;;;25.86;24.01;99039.56;173907;28;866;-51
2022/01/12 00:04:44;;;;;;;;;;;;;;;25.84;24.33;99038.81;173467;28;1121;-52
2022/01/12 00:04:50;;;;;;;;;;;;;;;25.84;23.94;99036.19;174005;28;995;-52
2022/01/12 00:04:55;;;;;;;;;;;;;;;25.85;24.07;99037.88;173881;28;1037;-50
2022/01/12 00:05:00;;;;;;;;;;;;;;;25.84;23.89;99039.66;173835;28;1207;-48
2022/01/12 00:05:05;;;;;;;;;;;;;;;25.85;24.08;99038.72;174003;28;885;-52
2022/01/12 00:05:11;;;;;;;;;;;;;;;25.85;24.33;99038.72;173428;28;4239;-48
2022/01/12 00:05:16;;;;;;;;;;;;;;;25.86;24.28;99037.78;173835;28;1274;-51
2022/01/12 00:05:21;;;;;;;;;;;;;;;25.85;24.00;99044.00;173742;28;978;-51
2022/01/12 00:05:26;;;;;;;;;;;;;;;25.80;24.28;99031.97;173058;28;686;-51
2022/01/12 00:05:31;;;;;;;;;;;;;;;25.75;23.99;99034.91;172515;28;951;-52
2022/01/12 00:05:37;;;;;;;;;;;;;;;25.75;24.29;99041.94;172641;28;1263;-51
2022/01/12 00:05:43;;;;;;;;;;;;;;;25.76;24.23;99036.59;172673;28;849;-51
2022/01/12 00:05:48;;;;;;;;;;;;;;;25.77;24.16;99035.66;172140;28;834;-50
2022/01/12 00:05:53;;;;;;;;;;;;;;;25.80;24.30;99035.47;172513;28;1053;-50
2022/01/12 00:05:58;;;;;;;;;;;;;;;25.82;24.08;99040.66;172596;28;947;-51
2022/01/12 00:06:03;;;;;;;;;;;;;;;25.79;24.18;99033.78;172421;28;1155;-51
2022/01/12 00:06:09;;;;;;;;;;;;;;;25.85;24.20;99045.81;172561;28;1121;-51
2022/01/12 00:06:14;;;;;;;;;;;;;;;25.83;23.99;99034.44;172675;28;1279;-51
2022/01/12 00:06:19;;;;;;;;;;;;;;;25.84;24.25;99038.81;172448;28;910;-51
2022/01/12 00:06:24;;;;;;;;;;;;;;;25.84;24.06;99037.03;172569;28;790;-50
2022/01/12 00:06:30;;;;;;;;;;;;;;;25.86;24.07;99043.06;172318;28;1565;-51
2022/01/12 00:06:35;;;;;;;;;;;;;;;25.88;24.17;99037.69;172068;28;1532;-51
2022/01/12 00:06:40;;;;;;;;;;;;;;;25.82;23.82;99030.94;172639;28;851;-51
2022/01/12 00:06:45;;;;;;;;;;;;;;;25.81;24.00;99038.97;172579;28;1152;-50
2022/01/12 00:06:50;;;;;;;;;;;;;;;25.84;24.10;99033.53;172773;28;822;-50
2022/01/12 00:06:56;;;;;;;;;;;;;;;25.85;23.93;99033.44;171912;28;1342;-49
2022/01/12 00:07:01;;;;;;;;;;;;;;;25.83;24.10;99032.69;172076;28;1513;-50
2022/01/12 00:07:06;;;;;;;;;;;;;;;25.81;24.28;99038.97;172346;28;1030;-51
2022/01/12 00:07:12;;;;;;;;;;;;;;;25.80;24.17;99031.97;172685;28;952;-52
2022/01/12 00:07:17;;;;;;;;;;;;;;;25.81;24.10;99034.53;172667;28;1053;-51
2022/01/12 00:07:23;;;;;;;;;;;;;;;25.83;24.39;99040.59;172641;28;944;-51
2022/01/12 00:07:28;;;;;;;;;;;;;;;25.77;24.01;99027.72;172614;28;814;-49
2022/01/12 00:07:33;;;;;;;;;;;;;;;25.79;24.02;99033.78;172573;28;1255;-50
2022/01/12 00:07:38;;;;;;;;;;;;;;;25.81;24.26;99031.03;172660;28;853;-50
2022/01/12 00:07:46;;;;;;;;;;;;;;;25.79;24.05;99038.22;172734;28;1197;-52
2022/01/12 00:07:51;;;;;;;;;;;;;;;25.79;24.41;99036.41;172742;28;850;-52
2022/01/12 00:07:57;;;;;;;;;;;;;;;25.77;24.29;99022.44;172456;28;909;-51
2022/01/12 00:08:02;;;;;;;;;;;;;;;25.82;24.02;99028.31;172397;28;1163;-49
2022/01/12 00:08:08;;;;;;;;;;;;;;;25.84;24.27;99036.19;172624;28;1117;-52
2022/01/12 00:08:13;;;;;;;;;;;;;;;25.83;24.12;99032.69;172681;28;1219;-52
2022/01/12 00:08:18;;;;;;;;;;;;;;;25.81;24.28;99036.31;172521;28;1224;-52
2022/01/12 00:08:25;;;;;;;;;;;;;;;25.81;23.99;99031.88;172601;28;801;-51
2022/01/12 00:08:31;;;;;;;;;;;;;;;25.84;24.13;99034.38;172584;28;1029;-49
2022/01/12 00:08:36;;;;;;;;;;;;;;;25.82;24.13;99036.22;172615;28;1275;-51
2022/01/12 00:08:42;;;;;;;;;;;;;;;25.82;24.03;99038.03;172577;28;1133;-51
2022/01/12 00:08:48;;;;;;;;;;;;;;;25.79;24.30;99036.41;172592;28;864;-52
2022/01/12 00:08:54;;;;;;;;;;;;;;;25.74;24.10;99033.16;172519;28;1117;-52
2022/01/12 00:09:05;;;;;;;;;;;;;;;25.78;24.40;99029.44;172789;28;864;-49
2022/01/12 00:09:10;;;;;;;;;;;;;;;25.83;24.00;99034.44;172290;28;4228;-48
2022/01/12 00:09:15;;;;;;;;;;;;;;;25.82;24.09;99038.88;172260;28;1374;-51
2022/01/12 00:09:20;;;;;;;;;;;;;;;25.85;24.01;99044.00;172109;28;1379;-51
2022/01/12 00:09:26;;;;;;;;;;;;;;;25.84;24.20;99034.38;172241;28;1081;-50
2022/01/12 00:09:31;;;;;;;;;;;;;;;25.87;24.05;99028.91;172586;28;1338;-51
2022/01/12 00:09:36;;;;;;;;;;;;;;;25.84;23.86;99034.38;172448;28;1424;-50
2022/01/12 00:09:41;;;;;;;;;;;;;;;25.86;24.01;99031.66;172666;28;1062;-51
2022/01/12 00:09:47;;;;;;;;;;;;;;;25.84;23.95;99037.03;171925;28;1521;-48
2022/01/12 00:09:52;;;;;;;;;;;;;;;25.81;24.04;99034.53;172434;28;939;-49
2022/01/12 00:09:57;;;;;;;;;;;;;;;25.84;23.86;99034.38;172637;28;916;-53
2022/01/12 00:10:03;;;;;;;;;;;;;;;25.87;24.32;99036.00;172360;28;1183;-54
2022/01/12 00:10:08;;;;;;;;;;;;;;;25.87;24.02;99028.06;172746;28;785;-48
2022/01/12 00:10:13;;;;;;;;;;;;;;;25.81;24.20;99037.19;172658;28;1176;-50
2022/01/12 00:10:19;;;;;;;;;;;;;;;25.80;24.00;99042.56;172530;28;892;-51
2022/01/12 00:10:24;;;;;;;;;;;;;;;25.80;23.96;99035.47;172409;28;865;-48
2022/01/12 00:10:29;;;;;;;;;;;;;;;25.80;24.32;99031.97;172601;28;979;-52
2022/01/12 00:10:34;;;;;;;;;;;;;;;25.80;24.11;99038.13;172492;28;1093;-51
2022/01/12 00:10:40;;;;;;;;;;;;;;;25.81;24.15;99031.03;172595;28;1071;-52
2022/01/12 00:10:45;;;;;;;;;;;;;;;25.76;24.05;99025.19;172595;28;872;-51
2022/01/12 00:10:50;;;;;;;;;;;;;;;25.72;24.10;99036.84;172567;28;1216;-51
2022/01/12 00:10:56;;;;;;;;;;;;;;;25.75;24.36;99032.25;172518;28;1069;-52
2022/01/12 00:11:02;;;;;;;;;;;;;;;25.79;24.04;99036.41;172301;28;1113;-51
2022/01/12 00:11:08;;;;;;;;;;;;;;;25.80;24.20;99038.13;172657;28;813;-50
2022/01/12 00:11:13;;;;;;;;;;;;;;;25.85;24.16;99030.78;171688;28;1573;-49
2022/01/12 00:11:20;;;;;;;;;;;;;;;25.81;24.21;99029.25;172461;28;797;-50
2022/01/12 00:11:25;;;;;;;;;;;;;;;25.80;24.29;99030.19;172421;28;951;-52
2022/01/12 00:11:31;;;;;;;;;;;;;;;25.82;24.36;99033.59;172509;28;904;-53
2022/01/12 00:11:36;;;;;;;;;;;;;;;25.79;24.01;99027.63;172544;28;1243;-50
2022/01/12 00:11:41;;;;;;;;;;;;;;;25.77;24.05;99033.03;172703;28;786;-52
2022/01/12 00:11:46;;;;;;;;;;;;;;;25.78;24.00;99031.22;172609;28;869;-51
2022/01/12 00:11:51;;;;;;;;;;;;;;;25.80;24.45;99029.34;172545;28;1335;-52
2022/01/12 00:11:59;;;;;;;;;;;;;;;25.80;24.29;99031.97;172485;28;1026;-52
2022/01/12 00:12:04;;;;;;;;;;;;;;;25.80;24.17;99037.28;172178;28;1074;-50
2022/01/12 00:12:09;;;;;;;;;;;;;;;25.81;24.35;99031.03;172638;28;1308;-49
2022/01/12 00:12:14;;;;;;;;;;;;;;;25.81;24.33;99033.69;172529;28;1164;-51
2022/01/12 00:12:20;;;;;;;;;;;;;;;25.79;24.08;99031.13;172650;28;1010;-50
2022/01/12 00:12:26;;;;;;;;;;;;;;;25.78;24.01;99037.38;172525;28;1200;-50
2022/01/12 00:12:31;;;;;;;;;;;;;;;25.79;23.94;99028.50;172689;28;860;-49
2022/01/12 00:12:36;;;;;;;;;;;;;;;25.77;24.10;99035.66;172583;28;1255;-50
2022/01/12 00:12:41;;;;;;;;;;;;;;;25.76;24.31;99025.19;172761;28;909;-51
2022/01/12 00:12:46;;;;;;;;;;;;;;;25.75;24.16;99026.97;172559;28;959;-51
2022/01/12 00:12:52;;;;;;;;;;;;;;;25.75;24.16;99029.63;172561;28;1027;-50
2022/01/12 00:12:57;;;;;;;;;;;;;;;25.75;24.00;99028.75;172552;28;1211;-51
2022/01/12 00:13:02;;;;;;;;;;;;;;;25.76;24.06;99026.03;172424;28;1188;-49
2022/01/12 00:13:07;;;;;;;;;;;;;;;25.77;24.47;99030.38;172721;28;801;-51
2022/01/12 00:13:12;;;;;;;;;;;;;;;25.75;24.27;99029.63;172084;28;4263;-51
2022/01/12 00:13:18;;;;;;;;;;;;;;;25.77;24.20;99026.88;172488;28;1454;-51
2022/01/12 00:13:24;;;;;;;;;;;;;;;25.77;23.96;99025.09;172306;28;1516;-49
2022/01/12 00:13:29;;;;;;;;;;;;;;;25.78;24.23;99023.31;173161;28;853;-49
2022/01/12 00:13:34;;;;;;;;;;;;;;;25.78;24.04;99028.59;173121;28;1046;-49
2022/01/12 00:13:40;;;;;;;;;;;;;;;25.76;24.37;99033.97;173140;28;782;-52
2022/01/12 00:13:45;;;;;;;;;;;;;;;25.76;24.37;99027.81;173343;28;855;-52
2022/01/12 00:13:51;;;;;;;;;;;;;;;25.83;24.32;99034.44;172588;28;1101;-50
2022/01/12 00:13:56;;;;;;;;;;;;;;;25.84;24.06;99034.38;172484;28;1018;-48
2022/01/12 00:14:02;;;;;;;;;;;;;;;25.86;24.20;99023.72;172352;28;1169;-50
2022/01/12 00:14:08;;;;;;;;;;;;;;;25.87;24.09;99028.91;171257;28;1210;-50
2022/01/12 00:14:13;;;;;;;;;;;;;;;25.84;23.95;99034.38;171354;28;1324;-49
2022/01/12 00:14:19;;;;;;;;;;;;;;;25.86;24.09;99024.56;171400;28;1467;-52
2022/01/12 00:14:25;;;;;;;;;;;;;;;25.84;23.92;99029.09;171547;28;1122;-51
2022/01/12 00:14:30;;;;;;;;;;;;;;;25.84;23.92;99022.97;171301;28;892;-50
2022/01/12 00:14:35;;;;;;;;;;;;;;;25.86;24.06;99026.34;171800;28;1150;-51
2022/01/12 00:14:40;;;;;;;;;;;;;;;25.86;24.26;99024.56;171856;28;896;-50
2022/01/12 00:14:46;;;;;;;;;;;;;;;25.79;24.21;99023.22;171950;28;1146;-49
2022/01/12 00:14:51;;;;;;;;;;;;;;;25.88;24.07;99035.03;172010;28;976;-51
2022/01/12 00:14:56;;;;;;;;;;;;;;;25.87;24.14;99026.25;171856;28;1082;-50
2022/01/12 00:15:01;;;;;;;;;;;;;;;25.86;24.17;99027.22;171763;28;1113;-51
2022/01/12 00:15:07;;;;;;;;;;;;;;;25.85;24.21;99029.94;171905;28;861;-50
2022/01/12 00:15:13;;;;;;;;;;;;;;;25.87;24.05;99026.25;171845;28;1193;-49
2022/01/12 00:15:18;;;;;;;;;;;;;;;25.90;23.95;99025.22;171691;28;940;-49
2022/01/12 00:15:24;;;;;;;;;;;;;;;25.87;24.12;99026.25;171774;28;1185;-50
2022/01/12 00:15:30;;;;;;;;;;;;;;;25.89;23.76;99029.66;171829;28;853;-50
2022/01/12 00:15:35;;;;;;;;;;;;;;;25.89;23.81;99027.03;171850;28;1182;-51
2022/01/12 00:15:41;;;;;;;;;;;;;;;25.93;24.16;99029.50;171977;28;885;-51
2022/01/12 00:15:46;;;;;;;;;;;;;;;25.92;24.11;99025.16;171948;28;1133;-51
2022/01/12 00:15:51;;;;;;;;;;;;;;;25.93;23.85;99030.38;172005;28;821;-51
2022/01/12 00:15:57;;;;;;;;;;;;;;;25.89;23.83;99024.38;171829;28;1046;-51
2022/01/12 00:16:02;;;;;;;;;;;;;;;25.89;23.78;99027.03;171618;28;1133;-50
2022/01/12 00:16:07;;;;;;;;;;;;;;;25.87;24.12;99022.78;172177;28;1022;-51
2022/01/12 00:16:13;;;;;;;;;;;;;;;25.86;23.93;99035.13;172510;28;1169;-50
2022/01/12 00:16:18;;;;;;;;;;;;;;;25.86;23.99;99027.22;172454;28;1043;-50
2022/01/12 00:16:23;;;;;;;;;;;;;;;25.91;23.97;99026.09;172435;28;1275;-51
2022/01/12 00:16:28;;;;;;;;;;;;;;;25.89;24.25;99029.66;172517;28;829;-51
2022/01/12 00:16:34;;;;;;;;;;;;;;;25.80;23.87;99032.84;172473;28;1154;-51
2022/01/12 00:16:40;;;;;;;;;;;;;;;25.80;24.34;99027.56;172654;28;794;-49
2022/01/12 00:16:50;;;;;;;;;;;;;;;25.81;24.28;99033.69;172556;28;1212;-51
2022/01/12 00:16:59;;;;;;;;;;;;;;;25.84;24.07;99029.09;172343;28;1050;-51
2022/01/12 00:17:04;;;;;;;;;;;;;;;25.87;23.99;99028.91;171742;28;4303;-52
2022/01/12 00:17:10;;;;;;;;;;;;;;;25.86;23.99;99027.22;172772;28;1034;-54
2022/01/12 00:17:15;;;;;;;;;;;;;;;25.81;24.10;99023.97;173230;28;1350;-50
2022/01/12 00:17:20;;;;;;;;;;;;;;;25.80;23.95;99031.97;173203;28;1188;-51
2022/01/12 00:17:25;;;;;;;;;;;;;;;25.75;24.04;99023.44;173198;28;924;-52
2022/01/12 00:17:30;;;;;;;;;;;;;;;25.73;24.18;99031.47;173148;28;1130;-50
2022/01/12 00:17:35;;;;;;;;;;;;;;;25.79;24.24;99025.00;173273;28;1239;-50
2022/01/12 00:17:41;;;;;;;;;;;;;;;25.75;23.93;99021.69;173242;28;1129;-48
2022/01/12 00:17:46;;;;;;;;;;;;;;;25.78;24.37;99029.44;173092;28;896;-51
2022/01/12 00:17:52;;;;;;;;;;;;;;;25.82;24.16;99032.75;173382;28;797;-51
2022/01/12 00:17:57;;;;;;;;;;;;;;;25.86;24.29;99024.56;173167;28;1069;-48
2022/01/12 00:18:02;;;;;;;;;;;;;;;25.87;24.02;99039.47;172532;28;1120;-51
2022/01/12 00:18:07;;;;;;;;;;;;;;;25.89;23.92;99028.81;172611;28;1132;-51
2022/01/12 00:18:12;;;;;;;;;;;;;;;25.86;24.20;99034.28;172673;28;1200;-50
2022/01/12 00:18:18;;;;;;;;;;;;;;;25.87;24.12;99033.34;172134;28;1501;-51
2022/01/12 00:18:23;;;;;;;;;;;;;;;25.91;23.97;99026.09;171988;28;1531;-49
2022/01/12 00:18:28;;;;;;;;;;;;;;;25.91;23.82;99032.25;172280;28;1753;-52
2022/01/12 00:18:34;;;;;;;;;;;;;;;25.90;23.87;99025.22;172330;28;1043;-50
2022/01/12 00:18:39;;;;;;;;;;;;;;;25.85;24.25;99033.44;172746;28;837;-48
2022/01/12 00:18:45;;;;;;;;;;;;;;;25.80;23.89;99030.19;171929;28;1347;-49
2022/01/12 00:18:50;;;;;;;;;;;;;;;25.86;24.03;99031.66;172546;28;837;-49
2022/01/12 00:18:56;;;;;;;;;;;;;;;25.84;24.13;99033.53;172562;28;1161;-51
2022/01/12 00:19:01;;;;;;;;;;;;;;;25.79;24.08;99025.00;172475;28;1198;-51
2022/01/12 00:19:06;;;;;;;;;;;;;;;25.76;24.31;99030.47;172627;28;942;-51
2022/01/12 00:19:11;;;;;;;;;;;;;;;25.77;24.17;99025.09;172729;28;477;-51
2022/01/12 00:19:17;;;;;;;;;;;;;;;25.74;23.89;99030.53;172449;28;1942;-50
2022/01/12 00:19:23;;;;;;;;;;;;;;;25.75;24.03;99023.44;172527;28;844;-49
2022/01/12 00:19:29;;;;;;;;;;;;;;;25.78;24.05;99025.94;172609;28;1200;-52
2022/01/12 00:19:34;;;;;;;;;;;;;;;25.81;23.97;99037.19;172574;28;1017;-52
2022/01/12 00:19:39;;;;;;;;;;;;;;;25.81;24.14;99034.53;172673;28;1132;-50
2022/01/12 00:19:44;;;;;;;;;;;;;;;25.79;24.29;99030.28;172739;28;943;-51
2022/01/12 00:19:49;;;;;;;;;;;;;;;25.81;24.46;99031.88;172720;28;785;-52
2022/01/12 00:19:55;;;;;;;;;;;;;;;25.84;24.03;99023.81;172519;28;1193;-50
2022/01/12 00:20:00;;;;;;;;;;;;;;;25.87;23.86;99028.91;172507;28;1140;-50
2022/01/12 00:20:05;;;;;;;;;;;;;;;25.86;24.35;99027.22;172544;28;974;-50
2022/01/12 00:20:10;;;;;;;;;;;;;;;25.86;24.11;99026.34;172169;28;1559;-50
2022/01/12 00:20:15;;;;;;;;;;;;;;;25.84;24.21;99023.81;172168;28;1362;-52
2022/01/12 00:20:21;;;;;;;;;;;;;;;25.84;24.05;99023.81;172528;28;940;-52
2022/01/12 00:20:26;;;;;;;;;;;;;;;25.85;23.90;99025.50;172640;28;1176;-51
2022/01/12 00:20:31;;;;;;;;;;;;;;;25.83;24.14;99026.50;172659;28;957;-50
2022/01/12 00:20:36;;;;;;;;;;;;;;;25.84;24.01;99028.25;172616;28;1243;-50
2022/01/12 00:20:42;;;;;;;;;;;;;;;25.85;24.02;99033.44;172581;28;1157;-52
2022/01/12 00:20:49;;;;;;;;;;;;;;;25.86;23.93;99023.72;171990;28;1548;-50
2022/01/12 00:20:54;;;;;;;;;;;;;;;25.86;24.22;99031.66;172462;28;1177;-49
2022/01/12 00:20:59;;;;;;;;;;;;;;;25.85;24.24;99033.44;172457;28;934;-52
2022/01/12 00:21:05;;;;;;;;;;;;;;;25.86;23.87;99026.34;172109;28;4905;-50
2022/01/12 00:21:10;;;;;;;;;;;;;;;25.85;24.19;99025.50;172701;28;833;-51
2022/01/12 00:21:15;;;;;;;;;;;;;;;25.84;24.09;99034.38;172632;28;1219;-49
2022/01/12 00:21:20;;;;;;;;;;;;;;;25.83;24.26;99029.16;172724;28;802;-51
2022/01/12 00:21:25;;;;;;;;;;;;;;;25.83;24.02;99030.03;172546;28;1097;-52
2022/01/12 00:21:31;;;;;;;;;;;;;;;25.88;23.92;99027.97;172648;28;805;-49
2022/01/12 00:21:36;;;;;;;;;;;;;;;25.86;24.20;99035.13;172574;28;1199;-51
2022/01/12 00:21:41;;;;;;;;;;;;;;;25.75;24.00;99034.91;171858;28;1326;-49
2022/01/12 00:21:46;;;;;;;;;;;;;;;25.77;24.17;99027.72;172425;28;867;-50
2022/01/12 00:21:52;;;;;;;;;;;;;;;25.83;23.89;99029.16;172499;28;1348;-52
2022/01/12 00:21:57;;;;;;;;;;;;;;;25.81;24.21;99028.41;172599;28;1235;-52
2022/01/12 00:22:03;;;;;;;;;;;;;;;25.81;24.21;99038.97;172328;28;1104;-50
2022/01/12 00:22:08;;;;;;;;;;;;;;;25.82;23.97;99033.59;172661;28;853;-51
2022/01/12 00:22:14;;;;;;;;;;;;;;;25.77;24.05;99027.72;172615;28;1153;-51
2022/01/12 00:22:19;;;;;;;;;;;;;;;25.80;24.03;99034.63;172582;28;897;-49
2022/01/12 00:22:24;;;;;;;;;;;;;;;25.81;23.89;99029.25;172539;28;1129;-51
2022/01/12 00:22:32;;;;;;;;;;;;;;;25.85;24.07;99036.09;171771;28;1517;-51
2022/01/12 00:22:39;;;;;;;;;;;;;;;25.87;24.04;99033.34;172409;28;1033;-50
2022/01/12 00:22:44;;;;;;;;;;;;;;;25.85;24.12;99025.50;172629;28;928;-51
2022/01/12 00:22:51;;;;;;;;;;;;;;;25.86;24.19;99027.22;172580;28;1184;-53
2022/01/12 00:22:57;;;;;;;;;;;;;;;25.87;24.09;99034.19;172287;28;1397;-49
2022/01/12 00:23:02;;;;;;;;;;;;;;;25.90;23.76;99030.50;172263;28;1026;-52
2022/01/12 00:23:07;;;;;;;;;;;;;;;25.88;23.91;99025.31;172638;28;912;-51
2022/01/12 00:23:14;;;;;;;;;;;;;;;25.81;24.36;99031.88;172669;28;1212;-52
2022/01/12 00:23:20;;;;;;;;;;;;;;;25.83;24.20;99037.09;172678;28;829;-51
2022/01/12 00:23:25;;;;;;;;;;;;;;;25.85;24.07;99033.44;172415;28;1200;-52
2022/01/12 00:23:30;;;;;;;;;;;;;;;25.88;23.94;99030.59;172582;28;841;-53
2022/01/12 00:23:38;;;;;;;;;;;;;;;25.89;24.16;99029.66;172556;28;1238;-51
2022/01/12 00:23:43;;;;;;;;;;;;;;;25.88;24.05;99027.97;172631;28;822;-49
2022/01/12 00:23:48;;;;;;;;;;;;;;;25.91;24.19;99028.72;171817;28;1303;-50
2022/01/12 00:23:53;;;;;;;;;;;;;;;25.91;23.87;99026.09;172508;28;1022;-50
2022/01/12 00:23:58;;;;;;;;;;;;;;;25.88;23.82;99027.97;172170;28;1122;-50
2022/01/12 00:24:04;;;;;;;;;;;;;;;25.88;23.91;99022.69;172464;28;1148;-49
2022/01/12 00:24:09;;;;;;;;;;;;;;;25.90;24.01;99027.88;172654;28;837;-50
2022/01/12 00:24:14;;;;;;;;;;;;;;;25.91;23.97;99029.59;172564;28;1120;-49
2022/01/12 00:24:19;;;;;;;;;;;;;;;25.94;24.18;99031.22;172565;28;885;-51
2022/01/12 00:24:27;;;;;;;;;;;;;;;25.93;23.98;99027.72;172446;28;875;-49
2022/01/12 00:25:02;;;;;;;;;;;;;;;25.90;23.76;99030.50;172604;28;1168;-50
2022/01/12 00:25:22;;;;;;;;;;;;;;;25.87;23.81;99033.34;172296;28;1593;-51
2022/01/12 00:25:33;;;;;;;;;;;;;;;25.80;23.82;99032.84;173013;28;4215;-51
2022/01/12 00:25:58;;;;;;;;;;;;;;;25.69;24.21;99032.56;173193;28;861;-50
2022/01/12 00:26:13;;;;;;;;;;;;;;;25.79;24.09;99031.13;173557;28;1002;-51
2022/01/12 00:33:07;;;;;;;;;;;;;;;25.83;24.09;99026.50;173765;28;967;-51
2022/01/12 00:33:12;;;;;;;;;;;;;;;25.53;24.41;99029.06;172600;28;951;-50
2022/01/12 00:33:17;;;;;;;;;;;;;;;25.56;24.10;99028.88;172007;28;5217;-51
2022/01/12 00:33:22;;;;;;;;;;;;;;;25.56;24.13;99035.03;172645;28;822;-53
2022/01/12 00:33:28;;;;;;;;;;;;;;;25.50;24.33;99026.56;172287;28;1555;-51
2022/01/12 00:33:33;;;;;;;;;;;;;;;25.51;24.29;99028.28;172503;28;1034;-49
2022/01/12 00:33:38;;;;;;;;;;;;;;;25.53;24.47;99031.72;172599;28;1020;-51
2022/01/12 00:33:43;;;;;;;;;;;;;;;25.52;24.49;99025.59;172694;28;1015;-50
2022/01/12 00:33:48;;;;;;;;;;;;;;;25.53;24.31;99029.91;172618;28;1148;-51
2022/01/12 00:33:54;;;;;;;;;;;;;;;25.47;24.58;99030.25;172630;28;1049;-51
2022/01/12 00:34:00;;;;;;;;;;;;;;;25.48;24.72;99026.66;172696;28;1137;-51
2022/01/12 00:34:05;;;;;;;;;;;;;;;25.51;24.44;99020.34;172362;28;909;-50
2022/01/12 00:34:10;;;;;;;;;;;;;;;25.54;24.57;99025.50;172454;28;1006;-50
2022/01/12 00:34:15;;;;;;;;;;;;;;;25.55;24.35;99022.75;171877;28;1398;-48
2022/01/12 00:34:20;;;;;;;;;;;;;;;25.55;24.57;99030.69;172340;28;1016;-51
2022/01/12 00:34:26;;;;;;;;;;;;;;;25.55;24.36;99024.56;172471;28;1145;-51
2022/01/12 00:34:31;;;;;;;;;;;;;;;25.56;24.47;99028.88;172660;28;849;-51
2022/01/12 00:34:36;;;;;;;;;;;;;;;25.56;24.37;99018.31;172567;28;1199;-51
2022/01/12 00:34:41;;;;;;;;;;;;;;;25.55;24.25;99033.31;172662;28;983;-51
2022/01/12 00:34:46;;;;;;;;;;;;;;;25.57;24.40;99026.16;172457;28;1207;-52
2022/01/12 00:34:52;;;;;;;;;;;;;;;25.63;24.21;99026.75;172529;28;865;-51
2022/01/12 00:34:57;;;;;;;;;;;;;;;25.64;24.54;99020.53;172575;28;1097;-51
2022/01/12 00:35:02;;;;;;;;;;;;;;;25.63;24.20;99024.97;172390;28;1140;-51
2022/01/12 00:35:07;;;;;;;;;;;;;;;25.62;24.66;99023.28;172646;28;806;-50
2022/01/12 00:35:13;;;;;;;;;;;;;;;25.62;24.63;99023.28;172630;28;1185;-50
2022/01/12 00:35:18;;;;;;;;;;;;;;;25.65;24.61;99019.59;172572;28;1068;-48
2022/01/12 00:35:25;;;;;;;;;;;;;;;25.67;24.23;99026.50;172542;28;1224;-51
2022/01/12 00:35:30;;;;;;;;;;;;;;;25.71;24.13;99021.91;172587;28;825;-52
2022/01/12 00:35:36;;;;;;;;;;;;;;;25.69;24.24;99022.00;172529;28;1109;-51
2022/01/12 00:35:45;;;;;;;;;;;;;;;25.73;24.51;99023.53;172510;28;853;-52
2022/01/12 00:35:51;;;;;;;;;;;;;;;25.74;24.22;99027.03;171933;28;510;-52
2022/01/12 00:35:56;;;;;;;;;;;;;;;25.73;24.08;99020.06;172328;28;947;-49
2022/01/12 00:36:01;;;;;;;;;;;;;;;25.66;24.27;99024.78;172427;28;938;-50
2022/01/12 00:36:06;;;;;;;;;;;;;;;25.68;24.36;99022.94;172568;28;857;-52
2022/01/12 00:36:12;;;;;;;;;;;;;;;25.70;24.31;99022.84;172580;28;1353;-51
2022/01/12 00:36:17;;;;;;;;;;;;;;;25.70;24.05;99023.69;172579;28;1335;-54
2022/01/12 00:36:22;;;;;;;;;;;;;;;25.65;24.00;99023.09;172408;28;1141;-50
2022/01/12 00:36:28;;;;;;;;;;;;;;;25.63;24.51;99027.63;172548;28;786;-52
2022/01/12 00:36:33;;;;;;;;;;;;;;;25.69;24.27;99026.44;172296;28;1095;-50
2022/01/12 00:36:38;;;;;;;;;;;;;;;25.70;24.42;99025.50;172625;28;1042;-52
2022/01/12 00:36:44;;;;;;;;;;;;;;;25.71;24.29;99028.06;172615;28;1153;-51
2022/01/12 00:36:49;;;;;;;;;;;;;;;25.74;24.09;99025.25;172643;28;896;-52
2022/01/12 00:36:54;;;;;;;;;;;;;;;25.76;24.02;99027.81;172226;28;1405;-51
2022/01/12 00:36:59;;;;;;;;;;;;;;;25.75;24.14;99024.34;171793;28;1345;-51
2022/01/12 00:37:04;;;;;;;;;;;;;;;25.72;24.35;99029.78;171910;28;4222;-53
2022/01/12 00:37:10;;;;;;;;;;;;;;;25.68;24.10;99022.94;172301;28;1298;-52
2022/01/12 00:37:15;;;;;;;;;;;;;;;25.69;24.27;99029.06;172504;28;1204;-50
2022/01/12 00:37:20;;;;;;;;;;;;;;;25.70;24.45;99025.50;171803;28;1322;-48
2022/01/12 00:37:25;;;;;;;;;;;;;;;25.71;24.17;99025.44;172394;28;916;-51
2022/01/12 00:37:30;;;;;;;;;;;;;;;25.74;24.21;99025.25;172667;28;1144;-51
2022/01/12 00:37:36;;;;;;;;;;;;;;;25.75;24.10;99026.09;172626;28;1208;-51
2022/01/12 00:37:41;;;;;;;;;;;;;;;25.77;24.25;99024.25;172666;28;889;-49